Time;durP1;ratioP1;P1;durP2;ratioP2;P2;SDS_P1;SDS_P2;PMS_P1;PMS_P2;Temp;Humidity;BMP_temperature;BMP_pressure;BME280_temperature;BME280_humidity;BME280_pressure;Samples;Min_cycle;Max_cycle;Signal;HPM_P1;HPM_P2
2023/08/09 00:00:38;;;;;;;2.80;1.50;;;;;;;13.92;100.00;100364.22;5088729;28;20227;-83
2023/08/09 00:03:05;;;;;;;1.77;1.40;;;;;;;13.92;100.00;100362.41;5087591;28;20205;-84
2023/08/09 00:05:32;;;;;;;2.10;1.60;;;;;;;13.90;100.00;100359.00;5089048;28;20204;-83
2023/08/09 00:07:58;;;;;;;2.00;1.47;;;;;;;13.92;100.00;100361.56;5085957;28;20205;-83
2023/08/09 00:10:25;;;;;;;2.43;1.40;;;;;;;13.94;100.00;100351.56;5090002;28;20235;-84
2023/08/09 00:12:54;;;;;;;1.73;1.37;;;;;;;13.94;100.00;100343.53;5091104;28;20231;-83
2023/08/09 00:15:20;;;;;;;2.63;1.40;;;;;;;13.93;100.00;100347.19;5087134;28;20204;-83
2023/08/09 00:17:47;;;;;;;2.83;1.67;;;;;;;13.93;100.00;100331.13;5093070;28;20200;-83
2023/08/09 00:20:14;;;;;;;3.20;1.60;;;;;;;13.92;100.00;100334.78;5085163;28;20255;-83
2023/08/09 00:22:42;;;;;;;2.90;1.50;;;;;;;13.87;100.00;100330.66;5089892;28;20656;-83
2023/08/09 00:25:10;;;;;;;3.53;1.60;;;;;;;13.86;100.00;100328.94;5090743;28;20200;-84
2023/08/09 00:27:37;;;;;;;2.87;1.30;;;;;;;13.81;100.00;100333.81;5082902;28;20292;-84
2023/08/09 00:30:07;;;;;;;1.43;1.00;;;;;;;13.83;100.00;100331.03;5091621;28;20242;-84
2023/08/09 00:32:34;;;;;;;1.60;1.20;;;;;;;13.80;99.91;100333.94;5086703;28;20263;-84
2023/08/09 00:35:00;;;;;;;3.57;1.90;;;;;;;13.75;99.87;100334.34;5084429;28;20200;-83
2023/08/09 00:37:27;;;;;;;1.80;1.30;;;;;;;13.75;99.50;100334.34;5078368;28;20196;-83
2023/08/09 00:39:54;;;;;;;3.20;1.87;;;;;;;13.71;99.29;100332.88;5085065;28;20703;-83
2023/08/09 00:42:20;;;;;;;3.13;1.17;;;;;;;13.70;99.64;100325.81;5089497;28;20586;-84
2023/08/09 00:44:47;;;;;;;3.20;1.40;;;;;;;13.74;99.05;100334.47;5087968;28;20208;-83
2023/08/09 00:47:15;;;;;;;2.37;1.10;;;;;;;13.72;98.72;100339.09;5090604;28;20304;-83
2023/08/09 00:49:42;;;;;;;1.73;1.13;;;;;;;13.71;99.13;100338.22;5093027;28;20224;-83
2023/08/09 00:52:09;;;;;;;2.17;1.33;;;;;;;13.73;100.00;100347.00;5086970;28;20215;-83
2023/08/09 00:54:39;;;;;;;2.43;1.80;;;;;;;13.73;100.00;100351.50;5088281;28;20207;-83
2023/08/09 00:57:06;;;;;;;2.47;1.47;;;;;;;13.72;100.00;100339.94;5080255;28;20211;-83
2023/08/09 00:59:33;;;;;;;4.43;1.53;;;;;;;13.75;100.00;100331.66;5088178;28;20729;-83
2023/08/09 01:02:00;;;;;;;1.90;1.47;;;;;;;13.75;100.00;100339.69;5081794;28;20204;-83
2023/08/09 01:04:29;;;;;;;2.87;1.30;;;;;;;13.77;100.00;100348.44;5088218;28;20212;-83
2023/08/09 01:07:13;;;;;;;3.30;1.40;;;;;;;13.74;100.00;100340.66;5088859;28;20208;-83
2023/08/09 01:09:49;;;;;;;1.63;1.30;;;;;;;13.73;100.00;100330.94;5086208;28;20240;-83
2023/08/09 01:12:20;;;;;;;1.80;1.60;;;;;;;13.70;100.00;100328.50;5084447;28;20204;-83
2023/08/09 01:14:52;;;;;;;1.80;1.30;;;;;;;13.68;100.00;100337.63;5091050;28;20206;-83
2023/08/09 01:17:19;;;;;;;2.67;1.70;;;;;;;13.66;100.00;100335.06;5085970;28;20196;-83
2023/08/09 01:19:50;;;;;;;1.90;1.60;;;;;;;13.69;100.00;100331.31;5088412;28;20224;-83
2023/08/09 01:22:22;;;;;;;1.97;1.70;;;;;;;13.68;100.00;100335.81;5081525;28;22131;-83
2023/08/09 01:24:51;;;;;;;2.60;1.70;;;;;;;13.68;100.00;100332.28;5078028;28;20200;-82
2023/08/09 01:27:18;;;;;;;2.03;1.60;;;;;;;13.64;100.00;100336.16;5087804;28;20215;-82
2023/08/09 01:29:45;;;;;;;3.40;2.17;;;;;;;13.63;100.00;100338.00;5078094;28;20240;-83
2023/08/09 01:32:12;;;;;;;2.20;1.40;;;;;;;13.63;100.00;100334.47;5079383;28;20205;-83
2023/08/09 01:34:39;;;;;;;4.67;1.40;;;;;;;13.65;100.00;100327.16;5092388;28;20727;-83
2023/08/09 01:37:12;;;;;;;3.43;1.60;;;;;;;13.62;100.00;100338.97;5085584;28;20208;-83
2023/08/09 01:39:42;;;;;;;2.40;1.60;;;;;;;13.62;100.00;100354.16;5075225;28;20366;-84
2023/08/09 01:42:12;;;;;;;5.03;1.77;;;;;;;13.61;100.00;100373.91;5090591;28;20239;-83
2023/08/09 01:44:40;;;;;;;1.70;1.60;;;;;;;13.61;100.00;100376.56;5085500;28;20208;-83
2023/08/09 01:47:07;;;;;;;3.67;1.77;;;;;;;13.58;100.00;100364.28;5085552;28;20683;-83
2023/08/09 01:49:34;;;;;;;5.03;1.70;;;;;;;13.56;100.00;100360.88;5085450;28;20594;-83
2023/08/09 01:52:00;;;;;;;2.20;1.60;;;;;;;13.56;100.00;100366.25;5089278;28;20204;-83
2023/08/09 01:54:27;;;;;;;3.33;1.90;;;;;;;13.52;100.00;100367.44;5079560;28;20201;-83
2023/08/09 01:56:53;;;;;;;2.93;1.97;;;;;;;13.47;100.00;100359.78;5085237;28;20200;-83
2023/08/09 01:59:23;;;;;;;1.93;1.50;;;;;;;13.46;100.00;100360.75;5084184;28;20306;-84
2023/08/09 02:01:49;;;;;;;2.67;2.23;;;;;;;13.47;100.00;100367.81;5092678;28;20269;-83
2023/08/09 02:04:16;;;;;;;3.97;1.83;;;;;;;13.47;100.00;100361.59;5088780;28;20734;-83
2023/08/09 02:06:42;;;;;;;3.00;1.70;;;;;;;13.44;100.00;100368.03;5087196;28;20217;-83
2023/08/09 02:09:10;;;;;;;2.20;2.00;;;;;;;13.43;100.00;100366.38;5079034;28;20688;-85
2023/08/09 02:11:36;;;;;;;2.80;1.60;;;;;;;13.42;100.00;100364.66;5082938;28;20852;-83
2023/08/09 02:14:03;;;;;;;4.27;1.97;;;;;;;13.42;100.00;100369.16;5077522;28;20219;-84
2023/08/09 02:16:31;;;;;;;6.70;1.70;;;;;;;13.42;100.00;100363.81;5091268;28;20208;-82
2023/08/09 02:18:57;;;;;;;5.13;2.43;;;;;;;13.40;100.00;100373.78;5089972;28;20207;-83
2023/08/09 02:21:25;;;;;;;3.87;2.10;;;;;;;13.38;100.00;100360.53;5088315;28;20211;-82
2023/08/09 02:23:52;;;;;;;5.10;2.20;;;;;;;13.38;100.00;100367.69;5089278;28;20203;-83
2023/08/09 02:26:18;;;;;;;2.27;1.60;;;;;;;13.34;100.00;100360.88;5086322;28;20205;-83
2023/08/09 02:28:45;;;;;;;2.63;1.53;;;;;;;13.33;100.00;100364.53;5090440;28;20761;-83
2023/08/09 02:31:11;;;;;;;4.23;1.83;;;;;;;13.31;100.00;100361.97;5082080;28;20232;-83
2023/08/09 02:33:39;;;;;;;2.67;1.90;;;;;;;13.28;100.00;100356.00;5090639;28;20572;-83
2023/08/09 02:36:06;;;;;;;2.23;1.70;;;;;;;13.26;100.00;100369.50;5095302;28;20215;-83
2023/08/09 02:38:33;;;;;;;6.93;2.17;;;;;;;13.24;100.00;100366.13;5092297;28;20291;-83
2023/08/09 02:41:00;;;;;;;4.17;1.97;;;;;;;13.20;100.00;100370.88;5090548;28;20704;-83
2023/08/09 02:43:27;;;;;;;3.27;1.70;;;;;;;13.18;100.00;100367.44;5081640;28;20664;-83
2023/08/09 02:45:54;;;;;;;2.83;2.00;;;;;;;13.15;100.00;100373.03;5086319;28;20207;-83
2023/08/09 02:48:21;;;;;;;3.03;2.10;;;;;;;13.11;100.00;100371.53;5087805;28;20208;-83
2023/08/09 02:50:49;;;;;;;2.77;1.60;;;;;;;13.08;100.00;100379.78;5089884;28;20236;-83
2023/08/09 02:53:16;;;;;;;2.63;1.70;;;;;;;13.05;100.00;100385.41;5078721;28;20216;-83
2023/08/09 02:55:43;;;;;;;2.83;2.00;;;;;;;13.01;100.00;100383.06;5084214;28;20648;-83
2023/08/09 02:58:10;;;;;;;2.17;1.60;;;;;;;12.99;100.00;100398.38;5083615;28;20302;-83
2023/08/09 03:00:37;;;;;;;2.40;1.90;;;;;;;12.96;100.00;100383.41;5087177;28;20231;-83
2023/08/09 03:03:06;;;;;;;3.43;2.10;;;;;;;12.92;100.00;100392.66;5092717;28;20200;-83
2023/08/09 03:05:33;;;;;;;4.03;2.00;;;;;;;12.90;100.00;100394.56;5093551;28;20763;-83
2023/08/09 03:08:00;;;;;;;2.23;2.00;;;;;;;12.89;100.00;100397.41;5080367;28;20220;-83
2023/08/09 03:10:27;;;;;;;3.23;1.80;;;;;;;12.85;100.00;100399.44;5082830;28;20226;-82
2023/08/09 03:12:54;;;;;;;3.77;2.13;;;;;;;12.82;100.00;100395.19;5086157;28;20777;-83
2023/08/09 03:15:21;;;;;;;4.13;2.37;;;;;;;12.80;100.00;100409.63;5081232;28;20235;-83
2023/08/09 03:17:48;;;;;;;3.47;2.53;;;;;;;12.77;100.00;100408.03;5083555;28;20677;-83
2023/08/09 03:20:15;;;;;;;2.57;2.13;;;;;;;12.75;100.00;100409.13;5080729;28;20224;-83
2023/08/09 03:22:41;;;;;;;4.13;2.20;;;;;;;12.72;100.00;100418.22;5090299;28;20198;-83
2023/08/09 03:25:09;;;;;;;3.40;2.50;;;;;;;12.71;100.00;100408.53;5081822;28;20206;-83
2023/08/09 03:27:36;;;;;;;3.27;1.60;;;;;;;12.69;100.00;100415.81;5083242;28;20205;-83
2023/08/09 03:30:03;;;;;;;5.60;2.57;;;;;;;12.67;100.00;100416.88;5081024;28;20228;-83
2023/08/09 03:32:30;;;;;;;2.50;2.30;;;;;;;12.64;100.00;100423.31;5086911;28;20710;-83
2023/08/09 03:34:56;;;;;;;3.90;2.40;;;;;;;12.62;100.00;100427.06;5084776;28;20204;-83
2023/08/09 03:37:23;;;;;;;3.33;2.40;;;;;;;12.58;100.00;100426.44;5089384;28;20212;-82
2023/08/09 03:39:50;;;;;;;3.20;2.13;;;;;;;12.55;100.00;100426.66;5094374;28;20597;-83
2023/08/09 03:42:18;;;;;;;4.80;2.70;;;;;;;12.55;100.00;100436.50;5084022;28;20253;-83
2023/08/09 03:44:44;;;;;;;2.90;2.30;;;;;;;12.54;100.00;100442.81;5085987;28;20209;-82
2023/08/09 03:47:11;;;;;;;2.27;2.07;;;;;;;12.50;100.00;100445.72;5084817;28;20220;-82
2023/08/09 03:49:37;;;;;;;2.37;2.17;;;;;;;12.48;100.00;100441.44;5084487;28;20232;-83
2023/08/09 03:52:06;;;;;;;3.50;2.50;;;;;;;12.46;100.00;100448.72;5100686;28;20234;-82
2023/08/09 03:54:32;;;;;;;3.27;2.37;;;;;;;12.44;100.00;100453.31;5086708;28;20291;-82
2023/08/09 03:56:59;;;;;;;3.70;2.60;;;;;;;12.41;100.00;100462.41;5084516;28;20214;-82
2023/08/09 03:59:27;;;;;;;4.13;2.60;;;;;;;12.39;100.00;100461.66;5091933;28;20228;-82
2023/08/09 04:01:53;;;;;;;3.27;2.47;;;;;;;12.38;100.00;100459.97;5093589;28;20211;-82
2023/08/09 04:04:20;;;;;;;7.33;3.57;;;;;;;12.37;100.00;100468.09;5091600;28;20219;-82
2023/08/09 04:06:46;;;;;;;2.83;2.50;;;;;;;12.35;100.00;100457.53;5089026;28;20227;-82
2023/08/09 04:09:13;;;;;;;3.83;2.50;;;;;;;12.33;100.00;100463.97;5083115;28;20235;-83
2023/08/09 04:11:40;;;;;;;2.43;2.07;;;;;;;12.34;100.00;100466.53;5090182;28;20703;-83
2023/08/09 04:14:06;;;;;;;3.83;2.23;;;;;;;12.30;100.00;100470.38;5083611;28;20212;-83
2023/08/09 04:16:34;;;;;;;3.40;2.50;;;;;;;12.30;100.00;100469.53;5088619;28;20236;-83
2023/08/09 04:19:01;;;;;;;3.70;2.50;;;;;;;12.30;100.00;100473.03;5087251;28;20239;-83
2023/08/09 04:21:27;;;;;;;3.70;2.30;;;;;;;12.27;100.00;100475.94;5088952;28;20203;-83
2023/08/09 04:23:54;;;;;;;4.37;2.57;;;;;;;12.28;100.00;100485.66;5088125;28;20203;-83
2023/08/09 04:26:21;;;;;;;3.17;2.53;;;;;;;12.28;100.00;100491.00;5100241;28;20200;-83
2023/08/09 04:28:47;;;;;;;3.53;2.47;;;;;;;12.27;100.00;100488.44;5092012;28;20650;-84
2023/08/09 04:31:15;;;;;;;4.00;2.43;;;;;;;12.26;100.00;100481.38;5087078;28;20854;-83
2023/08/09 04:33:49;;;;;;;3.97;2.70;;;;;;;12.26;100.00;100487.56;5083149;28;20225;-83
2023/08/09 04:36:15;;;;;;;2.97;2.67;;;;;;;12.26;100.00;100492.91;5092780;28;20277;-83
2023/08/09 04:38:42;;;;;;;6.60;3.00;;;;;;;12.23;100.00;100498.47;5092128;28;20219;-83
2023/08/09 04:41:09;;;;;;;4.60;2.57;;;;;;;12.23;100.00;100500.28;5087963;28;20224;-82
2023/08/09 04:43:37;;;;;;;3.70;2.97;;;;;;;12.22;100.00;100499.44;5092029;28;20212;-82
2023/08/09 04:46:03;;;;;;;5.57;3.10;;;;;;;12.24;100.00;100502.84;5087485;28;20654;-82
2023/08/09 04:48:30;;;;;;;5.57;2.80;;;;;;;12.24;100.00;100502.84;5088359;28;20207;-82
2023/08/09 04:50:58;;;;;;;4.93;2.93;;;;;;;12.25;100.00;100504.56;5082935;28;20255;-82
2023/08/09 04:53:25;;;;;;;3.47;2.70;;;;;;;12.24;100.00;100502.00;5085372;28;20204;-82
2023/08/09 04:55:51;;;;;;;4.73;2.90;;;;;;;12.23;100.00;100500.28;5088886;28;20197;-82
2023/08/09 04:58:18;;;;;;;4.10;3.03;;;;;;;12.24;100.00;100510.00;5090469;28;20215;-82
2023/08/09 05:00:44;;;;;;;3.97;3.30;;;;;;;12.24;100.00;100500.19;5087383;28;20223;-82
2023/08/09 05:03:11;;;;;;;4.03;2.93;;;;;;;12.23;100.00;100502.97;5087246;28;20209;-83
2023/08/09 05:05:38;;;;;;;3.73;3.40;;;;;;;12.21;100.00;100504.88;5090175;28;20678;-83
2023/08/09 05:08:06;;;;;;;4.80;3.60;;;;;;;12.21;100.00;100508.41;5087440;28;20216;-82
2023/08/09 05:10:33;;;;;;;6.20;3.37;;;;;;;12.22;100.00;100519.94;5084588;28;20230;-83
2023/08/09 05:12:59;;;;;;;4.23;3.60;;;;;;;12.25;100.00;100514.38;5089372;28;20334;-83
2023/08/09 05:15:25;;;;;;;5.17;4.10;;;;;;;12.27;100.00;100516.00;5089241;28;20215;-84
2023/08/09 05:17:52;;;;;;;4.40;3.93;;;;;;;12.29;100.00;100514.06;5081691;28;20204;-83
2023/08/09 05:20:18;;;;;;;4.60;4.10;;;;;;;12.32;100.00;100521.00;5086991;28;20703;-83
2023/08/09 05:22:45;;;;;;;7.23;4.60;;;;;;;12.32;100.00;100521.84;5086462;28;20560;-82
2023/08/09 05:25:13;;;;;;;5.57;3.73;;;;;;;12.35;100.00;100526.13;5090987;28;20211;-83
2023/08/09 05:27:40;;;;;;;4.97;4.30;;;;;;;12.37;100.00;100532.19;5093570;28;20672;-82
2023/08/09 05:30:08;;;;;;;4.27;3.87;;;;;;;12.40;100.00;100527.47;5088861;28;20233;-82
2023/08/09 05:32:34;;;;;;;4.67;4.17;;;;;;;12.43;100.00;100534.41;5090903;28;20700;-83
2023/08/09 05:35:01;;;;;;;7.70;3.90;;;;;;;12.46;100.00;100537.72;5087233;28;20599;-82
2023/08/09 05:37:27;;;;;;;5.07;4.07;;;;;;;12.50;100.00;100536.53;5090028;28;20274;-83
2023/08/09 05:39:54;;;;;;;6.17;4.30;;;;;;;12.56;100.00;100542.38;5089237;28;20227;-82
2023/08/09 05:42:22;;;;;;;6.20;4.27;;;;;;;12.60;100.00;100543.88;5083797;28;20201;-83
2023/08/09 05:44:48;;;;;;;5.07;3.73;;;;;;;12.62;100.00;100544.63;5086817;28;20248;-83
2023/08/09 05:47:15;;;;;;;6.10;4.43;;;;;;;12.63;100.00;100546.31;5092844;28;20205;-83
2023/08/09 05:49:41;;;;;;;5.00;3.70;;;;;;;12.67;100.00;100547.81;5088239;28;20342;-83
2023/08/09 05:52:08;;;;;;;3.90;3.43;;;;;;;12.78;100.00;100550.53;5091295;28;20235;-83
2023/08/09 05:54:34;;;;;;;4.80;4.20;;;;;;;12.88;100.00;100551.56;5085956;28;20200;-84
2023/08/09 05:57:01;;;;;;;4.40;3.87;;;;;;;12.96;100.00;100548.31;5089419;28;20647;-83
2023/08/09 05:59:29;;;;;;;4.37;3.97;;;;;;;13.03;100.00;100553.09;5085945;28;20215;-83
2023/08/09 06:01:56;;;;;;;7.27;4.20;;;;;;;13.16;100.00;100550.38;5085477;28;20645;-83
2023/08/09 06:04:24;;;;;;;5.27;3.97;;;;;;;13.28;100.00;100557.44;5082579;28;20578;-83
2023/08/09 06:06:51;;;;;;;4.93;3.77;;;;;;;13.39;100.00;100560.19;5088673;28;20661;-84
2023/08/09 06:09:17;;;;;;;4.43;4.03;;;;;;;13.52;100.00;100570.78;5082859;28;20228;-83
2023/08/09 06:11:44;;;;;;;3.80;3.50;;;;;;;13.65;100.00;100570.69;5093406;28;20238;-83
2023/08/09 06:14:10;;;;;;;4.77;4.27;;;;;;;13.77;100.00;100575.97;5090441;28;20261;-83
2023/08/09 06:16:38;;;;;;;4.53;3.40;;;;;;;13.86;100.00;100569.88;5084538;28;20204;-83
2023/08/09 06:19:04;;;;;;;3.73;3.10;;;;;;;14.00;100.00;100578.66;5088152;28;20216;-83
2023/08/09 06:21:31;;;;;;;5.83;3.70;;;;;;;14.14;100.00;100578.44;5091306;28;20197;-83
2023/08/09 06:23:57;;;;;;;3.97;3.43;;;;;;;14.25;99.83;100568.56;5086419;28;20201;-83
2023/08/09 06:26:24;;;;;;;3.70;3.13;;;;;;;14.37;98.13;100582.78;5083256;28;20207;-83
2023/08/09 06:28:50;;;;;;;4.23;3.10;;;;;;;14.48;97.37;100585.50;5087987;28;20200;-83
2023/08/09 06:31:17;;;;;;;3.10;2.80;;;;;;;14.56;95.47;100582.19;5086324;28;20233;-83
2023/08/09 06:33:45;;;;;;;4.53;2.73;;;;;;;14.70;96.39;100594.47;5080892;28;20214;-83
2023/08/09 06:36:12;;;;;;;3.03;2.60;;;;;;;14.80;93.08;100598.13;5087139;28;20592;-83
2023/08/09 06:38:39;;;;;;;4.10;2.40;;;;;;;14.91;90.42;100592.72;5083564;28;20312;-83
2023/08/09 06:41:05;;;;;;;3.07;2.50;;;;;;;14.99;90.07;100592.94;5082051;28;20238;-83
2023/08/09 06:43:32;;;;;;;4.50;2.27;;;;;;;15.10;90.25;100598.25;5095142;28;20273;-83
2023/08/09 06:45:59;;;;;;;3.63;2.17;;;;;;;15.23;90.31;100590.88;5081480;28;20220;-85
2023/08/09 06:48:27;;;;;;;3.57;2.63;;;;;;;15.37;88.16;100603.19;5087376;28;20210;-85
2023/08/09 06:50:55;;;;;;;2.60;2.00;;;;;;;15.49;86.89;100603.97;5078128;28;20233;-84
2023/08/09 06:53:23;;;;;;;4.23;2.47;;;;;;;15.56;85.36;100610.56;5083054;28;20222;-84
2023/08/09 06:55:49;;;;;;;3.20;2.23;;;;;;;15.68;85.36;100605.97;5091107;28;20250;-84
2023/08/09 06:58:16;;;;;;;2.70;1.90;;;;;;;15.82;86.18;100611.84;5085829;28;20204;-85
2023/08/09 07:00:45;;;;;;;2.90;2.13;;;;;;;15.95;85.00;100615.19;5095544;28;20226;-84
2023/08/09 07:03:13;;;;;;;2.63;1.67;;;;;;;16.10;83.63;100626.47;5103053;28;20294;-84
2023/08/09 07:05:41;;;;;;;2.47;1.90;;;;;;;16.24;81.22;100625.25;5094386;28;20295;-84
2023/08/09 07:08:09;;;;;;;3.90;2.50;;;;;;;16.30;79.03;100627.41;5094252;28;20282;-83
2023/08/09 07:13:10;;;;;;;1.90;1.23;;;;;;;16.43;76.36;100632.56;5045473;28;20238;-76
2023/08/09 07:15:37;;;;;;;3.97;1.53;;;;;;;16.46;76.38;100637.66;5052859;28;20215;-76
2023/08/09 07:18:04;;;;;;;2.53;1.53;;;;;;;16.51;76.53;100640.78;5050734;28;20288;-76
2023/08/09 07:20:30;;;;;;;3.10;1.60;;;;;;;16.57;76.15;100648.31;5052098;28;20210;-76
2023/08/09 07:22:57;;;;;;;2.30;1.47;;;;;;;16.66;75.47;100648.38;5049148;28;20225;-76
2023/08/09 07:25:25;;;;;;;3.20;1.50;;;;;;;16.75;75.43;100644.03;5081272;22;20236;-75
2023/08/09 07:27:52;;;;;;;3.40;1.57;;;;;;;16.89;75.32;100650.84;5095420;28;20279;-72
2023/08/09 07:30:19;;;;;;;4.67;1.50;;;;;;;16.99;74.36;100652.59;5097033;28;20213;-73
2023/08/09 07:32:47;;;;;;;4.03;1.40;;;;;;;17.10;73.08;100643.53;5088596;28;20233;-73
2023/08/09 07:35:14;;;;;;;2.23;1.50;;;;;;;17.21;73.09;100648.78;5090367;28;20212;-73
2023/08/09 07:37:43;;;;;;;1.83;1.10;;;;;;;17.32;71.89;100645.97;5107596;28;20266;-73
2023/08/09 07:40:12;;;;;;;2.27;1.30;;;;;;;17.43;71.76;100653.06;5109325;28;20214;-73
2023/08/09 07:42:41;;;;;;;3.30;1.60;;;;;;;17.53;70.76;100658.47;5107073;28;20659;-73
2023/08/09 07:45:09;;;;;;;3.10;1.30;;;;;;;17.62;69.39;100657.59;5106879;28;20216;-75
2023/08/09 07:47:36;;;;;;;1.77;1.20;;;;;;;17.72;68.53;100660.34;5109355;28;20198;-74
2023/08/09 07:50:03;;;;;;;2.80;1.53;;;;;;;17.79;68.42;100666.84;5110792;28;20360;-75
2023/08/09 07:52:30;;;;;;;0.90;0.80;;;;;;;17.90;67.06;100659.47;5111904;27;20739;-73
2023/08/09 07:54:58;;;;;;;2.07;1.00;;;;;;;17.98;66.03;100662.28;5110408;27;20211;-73
2023/08/09 07:57:25;;;;;;;3.20;1.03;;;;;;;18.07;65.73;100660.56;5114045;27;20314;-73
2023/08/09 07:59:52;;;;;;;3.73;1.17;;;;;;;18.11;65.21;100666.50;5112423;27;20647;-72
2023/08/09 08:02:19;;;;;;;1.40;1.00;;;;;;;18.18;66.17;100668.47;5114464;27;20205;-74
2023/08/09 08:04:45;;;;;;;3.30;0.80;;;;;;;18.22;65.45;100669.06;5108723;27;20204;-71
2023/08/09 08:07:13;;;;;;;1.50;0.90;;;;;;;18.28;64.10;100666.59;5113130;27;20230;-72
2023/08/09 08:09:41;;;;;;;1.03;0.80;;;;;;;18.37;64.24;100668.44;5112852;27;20231;-73
2023/08/09 08:12:08;;;;;;;2.13;1.00;;;;;;;18.50;63.68;100668.09;5111519;27;20365;-73
2023/08/09 08:14:35;;;;;;;3.80;0.97;;;;;;;18.58;61.82;100670.91;5110907;27;20196;-74
2023/08/09 08:17:04;;;;;;;2.30;0.90;;;;;;;18.69;62.77;100667.19;5119846;27;20290;-74
2023/08/09 08:19:30;;;;;;;2.30;0.87;;;;;;;18.78;62.15;100684.38;5108845;27;20205;-73
2023/08/09 08:21:57;;;;;;;1.50;0.90;;;;;;;18.83;62.11;100680.19;5114997;27;20212;-72
2023/08/09 08:24:24;;;;;;;3.47;1.30;;;;;;;18.92;62.11;100686.56;5108930;27;20209;-73
2023/08/09 08:26:53;;;;;;;1.20;0.80;;;;;;;18.93;60.87;100682.88;5115057;27;20605;-74
2023/08/09 08:29:20;;;;;;;5.93;1.17;;;;;;;19.02;61.03;100682.78;5109614;27;20294;-73
2023/08/09 08:31:46;;;;;;;3.70;1.03;;;;;;;19.13;60.33;100689.84;5112255;27;20565;-74
2023/08/09 08:34:14;;;;;;;2.87;0.90;;;;;;;19.21;59.88;100689.94;5108709;28;20202;-73
2023/08/09 08:36:41;;;;;;;1.93;0.80;;;;;;;19.25;59.42;100688.63;5115670;27;20246;-72
2023/08/09 08:39:14;;;;;;;2.93;0.70;;;;;;;19.25;58.04;100685.94;5107189;27;20270;-74
2023/08/09 08:41:41;;;;;;;2.50;0.67;;;;;;;19.23;57.30;100693.34;5118344;27;20305;-76
2023/08/09 08:44:08;;;;;;;2.03;0.80;;;;;;;19.24;56.85;100696.88;5107921;27;20286;-74
2023/08/09 08:46:35;;;;;;;0.90;0.67;;;;;;;19.31;56.18;100690.72;5111859;27;20220;-76
2023/08/09 08:49:04;;;;;;;1.57;0.90;;;;;;;19.43;56.25;100694.06;5107336;27;20214;-72
2023/08/09 08:51:34;;;;;;;1.17;0.70;;;;;;;19.59;56.49;100690.69;5102570;27;20206;-73
2023/08/09 08:54:01;;;;;;;1.50;0.80;;;;;;;19.62;55.52;100701.19;5111100;27;20623;-75
2023/08/09 08:56:28;;;;;;;0.95;0.77;;;;;;;19.57;55.48;100701.66;5111320;27;20226;-73
2023/08/09 08:58:55;;;;;;;3.27;0.90;;;;;;;19.56;56.06;100705.34;5113293;27;20653;-74
2023/08/09 09:01:23;;;;;;;2.23;0.60;;;;;;;19.61;56.88;100704.91;5112966;27;20199;-74
2023/08/09 09:03:49;;;;;;;1.10;0.50;;;;;;;19.63;54.97;100694.78;5107443;27;20199;-74
2023/08/09 09:06:16;;;;;;;1.43;0.80;;;;;;;19.62;54.10;100693.09;5116829;27;20242;-73
2023/08/09 09:08:44;;;;;;;1.25;0.60;;;;;;;19.62;54.12;100690.41;5113244;27;20776;-73
2023/08/09 09:11:18;;;;;;;1.77;0.60;;;;;;;19.70;52.86;100695.88;5107809;28;20267;-75
2023/08/09 09:13:47;;;;;;;1.10;0.70;;;;;;;19.73;52.73;100698.25;5111124;27;20242;-71
2023/08/09 09:16:15;;;;;;;1.37;0.70;;;;;;;19.74;52.50;100702.66;5110103;27;20219;-74
2023/08/09 09:18:42;;;;;;;3.08;0.60;;;;;;;19.74;53.18;100705.34;5106844;27;20382;-73
2023/08/09 09:21:09;;;;;;;1.77;0.70;;;;;;;19.72;52.75;100701.97;5112699;27;20202;-74
2023/08/09 09:23:37;;;;;;;4.90;0.82;;;;;;;19.79;52.49;100696.78;5106955;27;20206;-73
2023/08/09 09:26:09;;;;;;;1.27;0.60;;;;;;;19.86;52.73;100706.00;5109930;27;20238;-73
2023/08/09 09:28:41;;;;;;;3.70;0.60;;;;;;;19.91;51.25;100699.09;5100919;27;20202;-73
2023/08/09 09:31:08;;;;;;;1.33;0.60;;;;;;;19.89;50.84;100698.41;5109724;27;20729;-73
2023/08/09 09:33:35;;;;;;;1.10;0.70;;;;;;;19.82;50.37;100691.94;5106345;27;20237;-74
2023/08/09 09:36:02;;;;;;;2.63;0.73;;;;;;;19.81;51.37;100695.63;5099622;27;20597;-72
2023/08/09 09:38:30;;;;;;;2.17;0.90;;;;;;;19.84;51.55;100689.94;5110113;27;20681;-76
2023/08/09 09:40:57;;;;;;;2.13;0.67;;;;;;;19.83;51.15;100693.63;5113486;27;20205;-73
2023/08/09 09:43:25;;;;;;;1.42;0.50;;;;;;;19.83;51.10;100701.75;5104907;27;20206;-76
2023/08/09 09:45:55;;;;;;;1.33;0.50;;;;;;;19.90;50.16;100705.50;5112771;27;20230;-73
2023/08/09 09:48:21;;;;;;;2.17;0.60;;;;;;;19.99;50.65;100701.03;5108098;27;20245;-73
2023/08/09 09:50:49;;;;;;;1.42;0.50;;;;;;;20.08;50.48;100692.81;5105549;27;20659;-73
2023/08/09 09:53:16;;;;;;;1.75;0.65;;;;;;;20.20;51.57;100698.84;5107725;27;20257;-74
2023/08/09 09:55:43;;;;;;;2.10;1.20;;;;;;;20.30;49.96;100701.41;5107932;27;20238;-73
2023/08/09 09:58:12;;;;;;;1.10;0.50;;;;;;;20.35;50.48;100701.81;5118475;27;20307;-73
2023/08/09 10:00:44;;;;;;;1.67;0.50;;;;;;;20.41;49.82;100701.22;5116507;27;20195;-73
2023/08/09 10:03:13;;;;;;;1.70;0.60;;;;;;;20.49;49.61;100703.94;5116578;27;20579;-71
2023/08/09 10:05:42;;;;;;;1.80;0.82;;;;;;;20.57;49.48;100712.13;5109590;27;20664;-73
2023/08/09 10:08:10;;;;;;;1.45;0.65;;;;;;;20.64;49.60;100715.03;5108742;27;20218;-73
2023/08/09 10:10:39;;;;;;;2.05;0.50;;;;;;;20.62;48.25;100711.63;5115628;27;20206;-73
2023/08/09 10:13:07;;;;;;;1.95;0.73;;;;;;;20.66;47.83;100719.28;5108265;27;20231;-72
2023/08/09 10:15:37;;;;;;;1.05;0.50;;;;;;;20.76;47.19;100717.31;5097884;27;20232;-71
2023/08/09 10:18:10;;;;;;;1.52;0.60;;;;;;;20.89;48.43;100710.59;5115192;27;20210;-73
2023/08/09 10:20:41;;;;;;;1.63;0.70;;;;;;;21.00;47.50;100713.00;5110461;27;20342;-72
2023/08/09 10:23:08;;;;;;;1.50;0.40;;;;;;;21.03;47.06;100707.28;5114103;27;20215;-76
2023/08/09 10:25:43;;;;;;;0.85;0.60;;;;;;;21.12;46.55;100712.56;5110038;27;20237;-71
2023/08/09 10:28:10;;;;;;;1.25;0.60;;;;;;;21.20;45.82;100719.88;5114653;27;20263;-73
2023/08/09 10:30:45;;;;;;;0.73;0.50;;;;;;;21.27;46.13;100715.53;5101670;27;20710;-73
2023/08/09 10:33:18;;;;;;;1.00;0.80;;;;;;;21.32;45.91;100717.72;5116714;27;20215;-73
2023/08/09 10:35:47;;;;;;;3.00;0.50;;;;;;;21.28;45.38;100716.38;5107248;27;20712;-73
2023/08/09 10:38:15;;;;;;;1.60;0.60;;;;;;;21.26;45.18;100715.69;5113615;27;20331;-72
2023/08/09 10:40:42;;;;;;;2.63;0.65;;;;;;;21.30;45.74;100725.19;5110755;27;20210;-74
2023/08/09 10:43:09;;;;;;;0.77;0.55;;;;;;;21.33;45.66;100728.41;5104693;27;20199;-73
2023/08/09 10:45:35;;;;;;;1.45;0.60;;;;;;;21.38;45.60;100733.31;5092836;27;20802;-74
2023/08/09 10:48:20;;;;;;;3.83;0.70;;;;;;;21.44;45.71;100733.53;5101281;27;20447;-74
2023/08/09 10:50:46;;;;;;;0.75;0.55;;;;;;;21.54;45.49;100732.50;5101733;28;20213;-73
2023/08/09 10:53:19;;;;;;;1.17;0.40;;;;;;;21.61;44.11;100722.72;5098930;27;20237;-74
2023/08/09 10:55:46;;;;;;;2.05;0.43;;;;;;;21.69;44.96;100725.44;5102290;28;20258;-73
2023/08/09 10:58:14;;;;;;;0.75;0.57;;;;;;;21.82;44.20;100720.38;5103215;28;20290;-72
2023/08/09 11:00:42;;;;;;;1.80;0.80;;;;;;;21.93;44.19;100711.06;5105426;27;20196;-74
2023/08/09 11:03:10;;;;;;;0.90;0.40;;;;;;;21.99;41.97;100716.66;5105999;28;20217;-76
2023/08/09 11:05:39;;;;;;;0.80;0.47;;;;;;;21.99;41.13;100722.09;5102629;28;20602;-75
2023/08/09 11:08:16;;;;;;;6.82;1.33;;;;;;;21.91;40.92;100726.66;5103990;28;20543;-73
2023/08/09 11:10:42;;;;;;;1.05;0.70;;;;;;;21.88;41.67;100730.53;5093581;28;20199;-73
2023/08/09 11:13:12;;;;;;;1.77;0.65;;;;;;;21.85;42.59;100736.31;5096703;27;20253;-75
2023/08/09 11:15:39;;;;;;;0.75;0.50;;;;;;;21.79;42.81;100734.28;5096173;28;20232;-74
2023/08/09 11:18:07;;;;;;;1.23;0.60;;;;;;;21.82;42.98;100736.66;5095757;28;20218;-74
2023/08/09 11:20:34;;;;;;;1.95;0.60;;;;;;;21.83;41.64;100741.06;5100716;28;20211;-74
2023/08/09 11:23:04;;;;;;;2.50;0.80;;;;;;;21.87;42.24;100731.56;5098971;28;20581;-74
2023/08/09 11:25:32;;;;;;;1.55;0.55;;;;;;;21.94;42.60;100738.00;5096043;28;20243;-74